Time;durP1;ratioP1;P1;durP2;ratioP2;P2;SDS_P1;SDS_P2;PMS_P1;PMS_P2;Temp;Humidity;BMP_temperature;BMP_pressure;BME280_temperature;BME280_humidity;BME280_pressure;Samples;Min_cycle;Max_cycle;Signal;HPM_P1;HPM_P2
2020/12/20 00:01:56;;;;;;;20.00;17.80;;;;;;;;;;5057388;28;20435;-82
2020/12/20 00:04:22;;;;;;;20.52;18.20;;;;;;;;;;5039348;28;21150;-83
2020/12/20 00:06:48;;;;;;;20.50;18.30;;;;;;;;;;5041637;28;20379;-83
2020/12/20 00:09:16;;;;;;;19.95;17.65;;;;;;;;;;5055320;28;20364;-82
2020/12/20 00:11:43;;;;;;;20.27;18.17;;;;;;;;;;5048639;28;20378;-83
2020/12/20 00:14:30;;;;;;;19.08;17.08;;;;;;;;;;5039928;28;20367;-81
2020/12/20 00:16:59;;;;;;;19.42;17.42;;;;;;;;;;5044366;28;20432;-82
2020/12/20 00:19:25;;;;;;;20.13;17.05;;;;;;;;;;5041903;28;20376;-81
2020/12/20 00:22:10;;;;;;;21.25;18.38;;;;;;;;;;5037577;28;20361;-81
2020/12/20 00:24:36;;;;;;;20.45;17.23;;;;;;;;;;5033553;28;20483;-82
2020/12/20 00:27:03;;;;;;;19.67;17.65;;;;;;;;;;5051438;28;20352;-82
2020/12/20 00:29:31;;;;;;;20.25;17.77;;;;;;;;;;5051432;28;20441;-82
2020/12/20 00:31:57;;;;;;;21.93;18.20;;;;;;;;;;5051121;28;20422;-81
2020/12/20 00:34:23;;;;;;;22.00;19.08;;;;;;;;;;5033315;28;20411;-81
2020/12/20 00:36:50;;;;;;;22.08;18.80;;;;;;;;;;5033352;28;20420;-81
2020/12/20 00:39:17;;;;;;;21.03;18.50;;;;;;;;;;5050919;28;20400;-82
2020/12/20 00:41:48;;;;;;;20.40;18.15;;;;;;;;;;5051421;28;20364;-82
2020/12/20 00:44:14;;;;;;;21.80;18.50;;;;;;;;;;5033195;28;20413;-82
2020/12/20 00:46:40;;;;;;;20.00;17.38;;;;;;;;;;5033138;28;20376;-82
2020/12/20 00:49:06;;;;;;;20.48;17.83;;;;;;;;;;5050660;28;20367;-82
2020/12/20 00:51:32;;;;;;;20.75;17.30;;;;;;;;;;5033363;28;20510;-82
2020/12/20 00:53:59;;;;;;;21.08;17.98;;;;;;;;;;5033010;28;20372;-82
2020/12/20 00:56:25;;;;;;;19.40;17.30;;;;;;;;;;5033049;28;20376;-82
2020/12/20 00:58:51;;;;;;;20.20;18.10;;;;;;;;;;5031943;28;20501;-82
2020/12/20 01:01:17;;;;;;;20.67;17.23;;;;;;;;;;5050640;28;20449;-82
2020/12/20 01:03:43;;;;;;;19.67;17.30;;;;;;;;;;5033489;28;20711;-82
2020/12/20 01:06:15;;;;;;;18.88;16.88;;;;;;;;;;5032832;28;20372;-82
2020/12/20 01:08:41;;;;;;;18.85;16.88;;;;;;;;;;5032908;28;20376;-82
2020/12/20 01:11:07;;;;;;;18.30;16.33;;;;;;;;;;5032575;28;20383;-82
2020/12/20 01:13:34;;;;;;;19.27;17.20;;;;;;;;;;5032536;28;20399;-82
2020/12/20 01:16:00;;;;;;;18.40;16.48;;;;;;;;;;5032558;28;20379;-82
2020/12/20 01:18:26;;;;;;;17.45;15.65;;;;;;;;;;5032868;28;20400;-82
2020/12/20 01:20:52;;;;;;;19.17;16.65;;;;;;;;;;5032487;28;20430;-81
2020/12/20 01:23:18;;;;;;;18.13;16.23;;;;;;;;;;5032636;28;20378;-82
2020/12/20 01:25:44;;;;;;;16.95;15.18;;;;;;;;;;5050724;28;20447;-82
2020/12/20 01:28:10;;;;;;;17.30;15.40;;;;;;;;;;5032660;28;20454;-82
2020/12/20 01:30:36;;;;;;;17.63;15.73;;;;;;;;;;5032290;28;20384;-82
2020/12/20 01:33:02;;;;;;;17.23;15.40;;;;;;;;;;5050523;28;20367;-82
2020/12/20 01:35:28;;;;;;;17.60;15.80;;;;;;;;;;5032600;28;20854;-81
2020/12/20 01:37:54;;;;;;;17.42;15.63;;;;;;;;;;5050693;28;20404;-82
2020/12/20 01:40:20;;;;;;;18.00;16.10;;;;;;;;;;5032245;28;20388;-82
2020/12/20 01:42:53;;;;;;;17.83;15.73;;;;;;;;;;5032319;28;20390;-82
2020/12/20 01:45:19;;;;;;;17.00;15.23;;;;;;;;;;5032693;28;20375;-82
2020/12/20 01:47:45;;;;;;;16.63;14.75;;;;;;;;;;5032475;28;20383;-82
2020/12/20 01:50:11;;;;;;;17.60;15.02;;;;;;;;;;5032058;28;20849;-82
2020/12/20 01:52:38;;;;;;;16.23;14.57;;;;;;;;;;5050562;28;20387;-81
2020/12/20 01:55:04;;;;;;;16.73;14.95;;;;;;;;;;5050191;28;20360;-83
2020/12/20 01:57:30;;;;;;;16.52;14.73;;;;;;;;;;5032220;28;20442;-82
2020/12/20 01:59:56;;;;;;;16.48;14.68;;;;;;;;;;5031800;28;20422;-81
2020/12/20 02:02:22;;;;;;;17.00;15.20;;;;;;;;;;5049956;28;20371;-82
2020/12/20 02:04:48;;;;;;;17.27;15.25;;;;;;;;;;5050160;28;20364;-82
2020/12/20 02:07:15;;;;;;;16.58;14.77;;;;;;;;;;5032371;28;20391;-82
2020/12/20 02:09:44;;;;;;;16.85;14.95;;;;;;;;;;5032854;28;20406;-81
2020/12/20 02:12:10;;;;;;;15.75;14.10;;;;;;;;;;5035925;28;20372;-83
2020/12/20 02:14:36;;;;;;;16.85;14.95;;;;;;;;;;5035952;28;20380;-82
2020/12/20 02:17:02;;;;;;;16.10;14.40;;;;;;;;;;5035976;28;20530;-82
2020/12/20 02:19:28;;;;;;;16.48;14.65;;;;;;;;;;5053535;28;21137;-82
2020/12/20 02:21:54;;;;;;;17.17;15.38;;;;;;;;;;5035904;28;20923;-82
2020/12/20 02:24:20;;;;;;;15.70;14.05;;;;;;;;;;5053623;28;20451;-82
2020/12/20 02:26:46;;;;;;;17.00;15.07;;;;;;;;;;5053451;28;20470;-82
2020/12/20 02:29:13;;;;;;;16.27;14.57;;;;;;;;;;5035498;28;20437;-82
2020/12/20 02:31:39;;;;;;;16.08;14.43;;;;;;;;;;5035510;28;20372;-82
2020/12/20 02:34:06;;;;;;;16.35;14.65;;;;;;;;;;5035595;28;20376;-82
2020/12/20 02:36:32;;;;;;;16.33;14.37;;;;;;;;;;5035441;28;20759;-81
2020/12/20 02:38:59;;;;;;;16.58;14.88;;;;;;;;;;5035043;28;20396;-82
2020/12/20 02:41:25;;;;;;;17.80;15.50;;;;;;;;;;5035176;28;21117;-81
2020/12/20 02:43:51;;;;;;;16.67;14.98;;;;;;;;;;5035304;28;20429;-83
2020/12/20 02:46:17;;;;;;;16.38;14.63;;;;;;;;;;5035364;28;20368;-82
2020/12/20 02:48:45;;;;;;;16.55;14.85;;;;;;;;;;5035155;28;20375;-82
2020/12/20 02:51:11;;;;;;;16.50;14.27;;;;;;;;;;5035025;28;20965;-82
2020/12/20 02:53:37;;;;;;;16.70;14.88;;;;;;;;;;5035147;28;20399;-82
2020/12/20 02:56:03;;;;;;;18.20;16.08;;;;;;;;;;5053003;28;20360;-82
2020/12/20 02:58:29;;;;;;;16.05;14.35;;;;;;;;;;5035314;28;20411;-82
2020/12/20 03:00:55;;;;;;;18.50;16.40;;;;;;;;;;5052610;28;20372;-82
2020/12/20 03:03:21;;;;;;;16.75;15.00;;;;;;;;;;5035057;28;20372;-82
2020/12/20 03:05:47;;;;;;;16.25;14.55;;;;;;;;;;5052810;28;20368;-82
2020/12/20 03:08:14;;;;;;;17.23;15.25;;;;;;;;;;5034887;28;20375;-82
2020/12/20 03:10:39;;;;;;;17.88;15.13;;;;;;;;;;5034552;28;20374;-82
2020/12/20 03:13:05;;;;;;;16.27;14.57;;;;;;;;;;5034934;28;20380;-82
2020/12/20 03:15:32;;;;;;;17.60;15.73;;;;;;;;;;5052828;28;20870;-82
2020/12/20 03:17:58;;;;;;;17.70;15.37;;;;;;;;;;5052520;28;20538;-82
2020/12/20 03:20:24;;;;;;;17.58;15.40;;;;;;;;;;5034491;28;20400;-82
2020/12/20 03:22:50;;;;;;;17.27;15.48;;;;;;;;;;5051541;28;20877;-82
2020/12/20 03:25:16;;;;;;;16.17;14.50;;;;;;;;;;5052696;28;20426;-83
2020/12/20 03:27:42;;;;;;;17.77;15.88;;;;;;;;;;5034693;28;20380;-82
2020/12/20 03:30:08;;;;;;;18.70;16.63;;;;;;;;;;5052211;28;20418;-82
2020/12/20 03:32:34;;;;;;;18.55;16.30;;;;;;;;;;5034602;28;20402;-82
2020/12/20 03:35:00;;;;;;;17.77;15.90;;;;;;;;;;5034459;28;20838;-82
2020/12/20 03:37:26;;;;;;;17.60;15.70;;;;;;;;;;5034216;28;20443;-82
2020/12/20 03:39:52;;;;;;;17.05;15.25;;;;;;;;;;5052036;28;20360;-82
2020/12/20 03:42:18;;;;;;;17.00;15.30;;;;;;;;;;5052473;28;20387;-82
2020/12/20 03:44:44;;;;;;;17.25;15.40;;;;;;;;;;5034196;28;20403;-83
2020/12/20 03:47:10;;;;;;;18.33;15.23;;;;;;;;;;5034275;28;20433;-82
2020/12/20 03:49:36;;;;;;;17.25;15.23;;;;;;;;;;5051818;28;20896;-82
2020/12/20 03:52:03;;;;;;;16.35;14.65;;;;;;;;;;5034075;28;20380;-83
2020/12/20 03:54:29;;;;;;;16.35;14.68;;;;;;;;;;5034117;28;20375;-82
2020/12/20 03:56:55;;;;;;;16.80;15.07;;;;;;;;;;5034224;28;20376;-82
2020/12/20 03:59:22;;;;;;;16.52;14.80;;;;;;;;;;5033513;28;20404;-82
2020/12/20 04:01:48;;;;;;;16.77;14.85;;;;;;;;;;5033868;28;20455;-82
2020/12/20 04:04:14;;;;;;;17.98;15.52;;;;;;;;;;5033963;28;20372;-82
2020/12/20 04:06:40;;;;;;;17.95;16.05;;;;;;;;;;5033728;28;20735;-81
2020/12/20 04:09:07;;;;;;;18.48;16.02;;;;;;;;;;5051641;28;20367;-82
2020/12/20 04:11:33;;;;;;;17.45;15.63;;;;;;;;;;5033964;28;20372;-82
2020/12/20 04:13:59;;;;;;;17.17;15.32;;;;;;;;;;5033768;28;20695;-82
2020/12/20 04:16:25;;;;;;;17.02;15.23;;;;;;;;;;5033613;28;20433;-82
2020/12/20 04:18:51;;;;;;;16.67;14.95;;;;;;;;;;5051395;28;20392;-83
2020/12/20 04:21:17;;;;;;;16.40;14.70;;;;;;;;;;5033151;28;20757;-82
2020/12/20 04:23:43;;;;;;;16.27;14.57;;;;;;;;;;5033690;28;20393;-82
2020/12/20 04:26:09;;;;;;;17.17;15.38;;;;;;;;;;5051231;28;20417;-82
2020/12/20 04:28:35;;;;;;;16.40;14.70;;;;;;;;;;5033533;28;20898;-82
2020/12/20 04:31:01;;;;;;;17.05;15.35;;;;;;;;;;5033105;28;20847;-83
2020/12/20 04:33:27;;;;;;;15.75;14.15;;;;;;;;;;5033343;28;20368;-82
2020/12/20 04:35:53;;;;;;;16.57;14.87;;;;;;;;;;5033078;28;20907;-82
2020/12/20 04:38:19;;;;;;;17.48;15.60;;;;;;;;;;5033326;28;20411;-82
2020/12/20 04:40:45;;;;;;;18.38;16.40;;;;;;;;;;5032910;28;20370;-83
2020/12/20 04:43:11;;;;;;;18.20;16.30;;;;;;;;;;5033270;28;20372;-82
2020/12/20 04:45:38;;;;;;;18.27;16.38;;;;;;;;;;5033298;28;20360;-83
2020/12/20 04:48:05;;;;;;;17.73;15.77;;;;;;;;;;5033090;28;20893;-83
2020/12/20 04:50:31;;;;;;;17.85;16.02;;;;;;;;;;5032544;28;20400;-82
2020/12/20 04:52:58;;;;;;;17.98;15.90;;;;;;;;;;5033196;28;20380;-83
2020/12/20 04:55:24;;;;;;;17.33;15.52;;;;;;;;;;5033248;28;20449;-82
2020/12/20 04:57:51;;;;;;;16.95;15.20;;;;;;;;;;5032989;28;20406;-83
2020/12/20 05:00:18;;;;;;;17.60;15.77;;;;;;;;;;5032793;28;20399;-83
2020/12/20 05:02:44;;;;;;;17.05;15.25;;;;;;;;;;5050757;28;20364;-83
2020/12/20 05:05:10;;;;;;;16.52;14.82;;;;;;;;;;5032952;28;20418;-83
2020/12/20 05:07:36;;;;;;;17.67;15.85;;;;;;;;;;5032888;28;20376;-82
2020/12/20 05:10:04;;;;;;;16.98;15.18;;;;;;;;;;5032639;28;20363;-83
2020/12/20 05:12:31;;;;;;;17.85;16.02;;;;;;;;;;5032895;28;20785;-82
2020/12/20 05:14:58;;;;;;;16.50;14.80;;;;;;;;;;5032766;28;20723;-83
2020/12/20 05:17:25;;;;;;;17.42;15.60;;;;;;;;;;5050771;28;20368;-83
2020/12/20 05:19:51;;;;;;;16.90;15.10;;;;;;;;;;5032338;28;20870;-83
2020/12/20 05:22:18;;;;;;;17.45;15.65;;;;;;;;;;5032814;28;20443;-82
2020/12/20 05:24:45;;;;;;;17.20;15.50;;;;;;;;;;5032903;28;20375;-82
2020/12/20 05:27:20;;;;;;;18.47;15.83;;;;;;;;;;5032664;28;20374;-82
2020/12/20 05:29:47;;;;;;;17.65;15.75;;;;;;;;;;5032414;28;20379;-83
2020/12/20 05:32:26;;;;;;;18.92;16.75;;;;;;;;;;5032872;28;20379;-83
2020/12/20 05:34:59;;;;;;;18.38;15.90;;;;;;;;;;5032826;28;20463;-83
2020/12/20 05:37:27;;;;;;;17.87;15.97;;;;;;;;;;5032559;28;20372;-83
2020/12/20 05:39:55;;;;;;;17.77;15.98;;;;;;;;;;5032447;28;20368;-83
2020/12/20 05:42:22;;;;;;;18.23;16.33;;;;;;;;;;5032382;28;20368;-82
2020/12/20 05:44:48;;;;;;;19.23;17.10;;;;;;;;;;5033456;28;20455;-83
2020/12/20 05:47:14;;;;;;;18.38;16.58;;;;;;;;;;5036648;28;20372;-83
2020/12/20 05:49:40;;;;;;;19.25;17.23;;;;;;;;;;5036681;28;20367;-82
2020/12/20 05:52:10;;;;;;;19.75;17.73;;;;;;;;;;5036445;28;20968;-83
2020/12/20 05:54:38;;;;;;;20.00;17.90;;;;;;;;;;5054434;28;20360;-82
2020/12/20 05:57:07;;;;;;;19.65;17.52;;;;;;;;;;5054239;28;20842;-82
2020/12/20 06:03:11;;;;;;;20.67;18.48;;;;;;;;;;4935920;28;20986;-84
2020/12/20 06:05:41;;;;;;;20.70;18.43;;;;;;;;;;5020123;28;20723;-81
2020/12/20 06:08:11;;;;;;;20.52;18.42;;;;;;;;;;5036317;28;20737;-80
2020/12/20 06:10:43;;;;;;;21.05;18.85;;;;;;;;;;5053743;28;20352;-82
2020/12/20 06:13:13;;;;;;;22.50;19.13;;;;;;;;;;5036062;28;20509;-82
2020/12/20 06:15:40;;;;;;;21.55;19.35;;;;;;;;;;5036221;28;20376;-83
2020/12/20 06:18:11;;;;;;;20.58;18.38;;;;;;;;;;5036243;28;20399;-84
2020/12/20 06:20:58;;;;;;;20.70;18.47;;;;;;;;;;5035962;28;20372;-83
2020/12/20 06:23:25;;;;;;;20.25;18.15;;;;;;;;;;5035870;28;20390;-83
2020/12/20 06:25:51;;;;;;;21.45;19.15;;;;;;;;;;5035968;28;20387;-84
2020/12/20 06:28:22;;;;;;;20.17;17.98;;;;;;;;;;5035759;28;20379;-83
2020/12/20 06:30:48;;;;;;;20.92;18.73;;;;;;;;;;5035798;28;20446;-82
2020/12/20 06:33:24;;;;;;;21.10;18.90;;;;;;;;;;5035874;28;20372;-82
2020/12/20 06:35:50;;;;;;;21.92;19.60;;;;;;;;;;5035823;28;20383;-83
2020/12/20 06:38:21;;;;;;;21.83;19.48;;;;;;;;;;5035648;28;20404;-83
2020/12/20 06:40:47;;;;;;;23.10;20.40;;;;;;;;;;5035405;28;20376;-83
2020/12/20 06:43:13;;;;;;;21.08;18.88;;;;;;;;;;5035728;28;20394;-83
2020/12/20 06:45:40;;;;;;;21.80;19.50;;;;;;;;;;5053344;28;20360;-82
2020/12/20 06:48:09;;;;;;;22.50;20.10;;;;;;;;;;5035259;28;20475;-83
2020/12/20 06:50:43;;;;;;;22.92;20.52;;;;;;;;;;5035342;28;20794;-82
2020/12/20 06:53:10;;;;;;;23.37;20.87;;;;;;;;;;5035343;28;20368;-82
2020/12/20 06:55:36;;;;;;;22.63;20.23;;;;;;;;;;5034682;28;20400;-82
2020/12/20 06:58:02;;;;;;;23.98;21.30;;;;;;;;;;5046043;28;20413;-82
2020/12/20 07:00:47;;;;;;;23.60;20.95;;;;;;;;;;5038207;28;20720;-84
2020/12/20 07:03:19;;;;;;;22.58;20.13;;;;;;;;;;5043357;28;20380;-85
2020/12/20 07:05:45;;;;;;;23.25;20.77;;;;;;;;;;5038833;28;20372;-83
2020/12/20 07:08:11;;;;;;;22.38;19.98;;;;;;;;;;5053972;28;20370;-84
2020/12/20 07:10:43;;;;;;;22.42;20.02;;;;;;;;;;5054627;28;20375;-84
2020/12/20 07:13:10;;;;;;;23.55;20.88;;;;;;;;;;5055118;28;20371;-83
2020/12/20 07:15:43;;;;;;;23.15;20.67;;;;;;;;;;5071282;28;20875;-84
2020/12/20 07:18:09;;;;;;;23.65;21.13;;;;;;;;;;5071981;28;20884;-85
2020/12/20 07:20:35;;;;;;;24.42;21.23;;;;;;;;;;5034586;28;20374;-85
2020/12/20 07:23:01;;;;;;;24.15;21.52;;;;;;;;;;5034593;28;20372;-85
2020/12/20 07:25:28;;;;;;;22.92;20.52;;;;;;;;;;5063755;28;20758;-80
2020/12/20 07:27:54;;;;;;;22.90;20.50;;;;;;;;;;5054621;28;20382;-83
2020/12/20 07:30:20;;;;;;;22.27;19.98;;;;;;;;;;5044217;28;20376;-83
2020/12/20 07:32:46;;;;;;;23.17;20.73;;;;;;;;;;5034270;28;20381;-84
2020/12/20 07:35:13;;;;;;;25.10;22.37;;;;;;;;;;5050264;28;20914;-83
2020/12/20 07:37:51;;;;;;;26.15;22.23;;;;;;;;;;5053906;28;20439;-82
2020/12/20 07:40:18;;;;;;;24.67;22.00;;;;;;;;;;5046717;28;20374;-83
2020/12/20 07:42:44;;;;;;;24.67;21.87;;;;;;;;;;5071729;28;20748;-83
2020/12/20 07:45:13;;;;;;;28.88;24.50;;;;;;;;;;5064265;28;20360;-83
2020/12/20 07:47:39;;;;;;;27.67;24.13;;;;;;;;;;5033825;28;20387;-83
2020/12/20 07:50:05;;;;;;;25.58;22.85;;;;;;;;;;5057765;28;20404;-83
2020/12/20 07:52:31;;;;;;;25.20;22.50;;;;;;;;;;5050418;28;20408;-83
2020/12/20 07:54:58;;;;;;;25.42;22.73;;;;;;;;;;5053426;28;20457;-83
2020/12/20 07:57:25;;;;;;;27.40;22.77;;;;;;;;;;5053812;28;20374;-84
2020/12/20 08:00:06;;;;;;;25.85;23.05;;;;;;;;;;5049031;28;20387;-83
2020/12/20 08:02:33;;;;;;;26.15;23.27;;;;;;;;;;5051890;28;20402;-83
2020/12/20 08:05:09;;;;;;;25.83;23.05;;;;;;;;;;5071565;28;20936;-83
2020/12/20 08:07:35;;;;;;;26.88;23.98;;;;;;;;;;5052381;28;20366;-82
2020/12/20 08:10:01;;;;;;;26.83;23.92;;;;;;;;;;5033345;28;20491;-83
2020/12/20 08:12:27;;;;;;;29.33;26.23;;;;;;;;;;5051026;28;20366;-82
2020/12/20 08:15:00;;;;;;;29.90;26.60;;;;;;;;;;5053437;28;20840;-83
2020/12/20 08:17:26;;;;;;;27.95;24.88;;;;;;;;;;5052968;28;20378;-85
2020/12/20 08:19:52;;;;;;;29.00;25.75;;;;;;;;;;5051547;28;20378;-84
2020/12/20 08:22:20;;;;;;;27.50;24.50;;;;;;;;;;5053234;28;20376;-83
2020/12/20 08:24:46;;;;;;;29.08;25.98;;;;;;;;;;5035171;28;20376;-84
2020/12/20 08:27:17;;;;;;;29.70;26.50;;;;;;;;;;5033816;28;20434;-83
2020/12/20 08:29:44;;;;;;;30.25;26.42;;;;;;;;;;5035895;28;20380;-83
2020/12/20 08:32:12;;;;;;;28.90;25.90;;;;;;;;;;5032808;28;20763;-83
2020/12/20 08:34:38;;;;;;;28.17;25.17;;;;;;;;;;5049289;28;20377;-83
2020/12/20 08:37:08;;;;;;;29.13;25.98;;;;;;;;;;5053053;28;20449;-83
2020/12/20 08:39:34;;;;;;;28.73;25.73;;;;;;;;;;5050804;28;20406;-84
2020/12/20 08:42:02;;;;;;;28.77;24.88;;;;;;;;;;5052521;28;20376;-83
2020/12/20 08:44:28;;;;;;;28.08;25.10;;;;;;;;;;5039087;28;20770;-81
2020/12/20 08:47:04;;;;;;;28.80;25.70;;;;;;;;;;5032974;28;20368;-83
2020/12/20 08:49:30;;;;;;;26.63;23.80;;;;;;;;;;5045948;28;20436;-84
2020/12/20 08:52:04;;;;;;;27.38;24.48;;;;;;;;;;5052573;28;20362;-84
2020/12/20 08:54:30;;;;;;;28.10;25.20;;;;;;;;;;5039003;28;20380;-82
2020/12/20 08:57:01;;;;;;;27.50;24.57;;;;;;;;;;5033039;28;20391;-83
2020/12/20 08:59:26;;;;;;;26.67;23.80;;;;;;;;;;5069296;28;20401;-83
2020/12/20 09:01:53;;;;;;;26.90;24.20;;;;;;;;;;5070556;28;20400;-83
2020/12/20 09:04:19;;;;;;;26.27;23.48;;;;;;;;;;5034873;28;20380;-84
2020/12/20 09:07:01;;;;;;;28.13;25.13;;;;;;;;;;5050589;28;20379;-83
2020/12/20 09:09:28;;;;;;;26.85;24.02;;;;;;;;;;5068155;28;20382;-83
2020/12/20 09:11:54;;;;;;;26.13;23.17;;;;;;;;;;5052815;28;20358;-84
2020/12/20 09:14:20;;;;;;;25.83;23.17;;;;;;;;;;5035374;28;20397;-83
2020/12/20 09:16:46;;;;;;;25.63;22.92;;;;;;;;;;5036179;28;20370;-84
2020/12/20 09:19:13;;;;;;;25.02;22.38;;;;;;;;;;5069213;28;20404;-84
2020/12/20 09:21:39;;;;;;;25.02;22.45;;;;;;;;;;5045253;28;20459;-82
2020/12/20 09:24:05;;;;;;;24.65;22.15;;;;;;;;;;5059926;28;20415;-82
2020/12/20 09:26:31;;;;;;;25.25;22.60;;;;;;;;;;5042873;28;20764;-84
2020/12/20 09:28:57;;;;;;;25.40;22.70;;;;;;;;;;5059326;28;20352;-82
2020/12/20 09:31:23;;;;;;;25.50;22.80;;;;;;;;;;5060834;28;20363;-82
2020/12/20 09:33:52;;;;;;;25.10;22.40;;;;;;;;;;5043563;28;20387;-84
2020/12/20 09:36:22;;;;;;;24.48;21.88;;;;;;;;;;5046331;28;20373;-87
2020/12/20 09:38:50;;;;;;;24.13;21.63;;;;;;;;;;5044187;28;20400;-85
2020/12/20 09:41:17;;;;;;;24.15;21.55;;;;;;;;;;5058260;28;20397;-86
2020/12/20 09:43:44;;;;;;;24.48;21.88;;;;;;;;;;5058445;28;20383;-80
2020/12/20 09:46:20;;;;;;;22.75;20.33;;;;;;;;;;5040596;28;20385;-81
2020/12/20 09:48:47;;;;;;;22.70;20.40;;;;;;;;;;5039612;28;20435;-82
2020/12/20 09:51:13;;;;;;;22.97;20.60;;;;;;;;;;5041182;28;20416;-81
2020/12/20 09:53:39;;;;;;;22.40;20.13;;;;;;;;;;5060623;28;20378;-84
2020/12/20 09:56:05;;;;;;;22.05;19.75;;;;;;;;;;5043207;28;20740;-82
2020/12/20 09:58:32;;;;;;;21.80;19.50;;;;;;;;;;5039991;28;20407;-83
2020/12/20 10:00:58;;;;;;;22.67;20.27;;;;;;;;;;5040512;28;20367;-87
2020/12/20 10:03:27;;;;;;;21.38;19.17;;;;;;;;;;5043029;28;20380;-83
2020/12/20 10:05:55;;;;;;;21.87;19.57;;;;;;;;;;5058520;28;20362;-81
2020/12/20 10:08:21;;;;;;;20.30;18.27;;;;;;;;;;5039550;28;20378;-82
2020/12/20 10:10:50;;;;;;;20.90;18.70;;;;;;;;;;5060267;28;20405;-82
2020/12/20 10:13:15;;;;;;;21.23;18.92;;;;;;;;;;5060019;28;20386;-87
2020/12/20 10:15:42;;;;;;;20.37;18.27;;;;;;;;;;5046231;28;20379;-84
2020/12/20 10:18:08;;;;;;;20.35;18.20;;;;;;;;;;5061258;28;20399;-86
2020/12/20 10:20:35;;;;;;;19.93;17.87;;;;;;;;;;5037601;28;20484;-84
2020/12/20 10:23:01;;;;;;;20.48;18.27;;;;;;;;;;5040372;28;20422;-83
2020/12/20 10:25:28;;;;;;;21.42;19.15;;;;;;;;;;5060831;28;20394;-83
2020/12/20 10:27:54;;;;;;;21.20;18.90;;;;;;;;;;5041904;28;20375;-85
2020/12/20 10:30:21;;;;;;;21.90;19.52;;;;;;;;;;5061467;28;20451;-83
2020/12/20 10:32:47;;;;;;;20.40;18.30;;;;;;;;;;5056503;28;21988;-83
2020/12/20 10:35:14;;;;;;;21.20;19.00;;;;;;;;;;5051860;28;20447;-84
2020/12/20 10:37:40;;;;;;;19.85;17.85;;;;;;;;;;5047019;28;20781;-85
2020/12/20 10:40:06;;;;;;;20.45;18.25;;;;;;;;;;5050844;28;20378;-82
2020/12/20 10:42:32;;;;;;;19.92;17.83;;;;;;;;;;5043878;28;20783;-82
2020/12/20 10:44:58;;;;;;;19.63;17.53;;;;;;;;;;5038874;28;20471;-83
2020/12/20 10:47:24;;;;;;;19.48;17.48;;;;;;;;;;5047917;28;20376;-84
2020/12/20 10:49:51;;;;;;;20.35;18.15;;;;;;;;;;5035581;28;20368;-83
2020/12/20 10:52:17;;;;;;;19.95;17.95;;;;;;;;;;5059294;28;20919;-83
2020/12/20 10:54:44;;;;;;;19.70;17.67;;;;;;;;;;5036844;28;20412;-83
2020/12/20 10:57:10;;;;;;;20.77;18.67;;;;;;;;;;5055719;28;20369;-83
2020/12/20 10:59:36;;;;;;;20.10;18.00;;;;;;;;;;5063094;28;20997;-84
2020/12/20 11:02:02;;;;;;;20.13;17.95;;;;;;;;;;5035742;28;20727;-82
2020/12/20 11:04:28;;;;;;;19.23;17.23;;;;;;;;;;5052876;28;20436;-83
2020/12/20 11:07:01;;;;;;;18.85;16.85;;;;;;;;;;5054596;28;20436;-84
2020/12/20 11:09:27;;;;;;;18.77;16.77;;;;;;;;;;5072015;28;20358;-81
2020/12/20 11:11:54;;;;;;;19.83;17.30;;;;;;;;;;5073125;28;20366;-83
2020/12/20 11:14:21;;;;;;;18.52;16.63;;;;;;;;;;5054821;28;20386;-82
2020/12/20 11:16:49;;;;;;;18.35;16.38;;;;;;;;;;5054992;28;20377;-83
2020/12/20 11:19:15;;;;;;;18.73;16.73;;;;;;;;;;5054293;28;20888;-82
2020/12/20 11:21:41;;;;;;;18.83;16.93;;;;;;;;;;5053815;28;20803;-82
2020/12/20 11:24:07;;;;;;;18.63;16.63;;;;;;;;;;5054635;28;20375;-83
2020/12/20 11:26:35;;;;;;;18.10;16.08;;;;;;;;;;5054389;28;20358;-82
2020/12/20 11:29:01;;;;;;;19.10;17.13;;;;;;;;;;5054427;28;20374;-82
2020/12/20 11:31:28;;;;;;;18.58;16.67;;;;;;;;;;5054500;28;20477;-83
2020/12/20 11:33:54;;;;;;;18.42;16.52;;;;;;;;;;5054343;28;20744;-83
2020/12/20 11:36:22;;;;;;;17.40;15.60;;;;;;;;;;5054480;28;20382;-83
2020/12/20 11:38:48;;;;;;;19.60;17.50;;;;;;;;;;5054365;28;20433;-84
2020/12/20 11:41:14;;;;;;;19.37;17.37;;;;;;;;;;5072745;28;20691;-82
2020/12/20 11:43:41;;;;;;;19.65;17.65;;;;;;;;;;5053573;28;20860;-82
2020/12/20 11:46:07;;;;;;;18.13;16.23;;;;;;;;;;5054494;28;20381;-83
2020/12/20 11:48:33;;;;;;;18.93;16.87;;;;;;;;;;5054403;28;20382;-84
2020/12/20 11:50:59;;;;;;;18.42;16.52;;;;;;;;;;5073452;28;20362;-85
2020/12/20 11:53:26;;;;;;;19.10;17.10;;;;;;;;;;5072162;28;20362;-83
2020/12/20 11:55:52;;;;;;;18.88;16.98;;;;;;;;;;5054395;28;20785;-84
2020/12/20 11:58:18;;;;;;;17.75;15.95;;;;;;;;;;5054237;28;20394;-84
2020/12/20 12:00:45;;;;;;;18.35;16.45;;;;;;;;;;5053728;28;20393;-85
2020/12/20 12:03:13;;;;;;;16.95;15.20;;;;;;;;;;5072063;28;20400;-85
2020/12/20 12:05:39;;;;;;;18.08;16.27;;;;;;;;;;5053953;28;20855;-83
2020/12/20 12:08:08;;;;;;;18.85;16.10;;;;;;;;;;5053911;28;20380;-84
2020/12/20 12:10:35;;;;;;;17.90;16.02;;;;;;;;;;5046379;28;20384;-88
2020/12/20 12:13:02;;;;;;;17.35;15.55;;;;;;;;;;5059560;28;20379;-84
2020/12/20 12:15:28;;;;;;;17.75;15.95;;;;;;;;;;5059489;28;20391;-83
2020/12/20 12:17:55;;;;;;;18.17;16.25;;;;;;;;;;5060161;28;20391;-81
2020/12/20 12:20:21;;;;;;;17.67;15.82;;;;;;;;;;5042516;28;20374;-85
2020/12/20 12:22:47;;;;;;;18.73;15.32;;;;;;;;;;5041283;28;20588;-82
2020/12/20 12:25:14;;;;;;;17.50;15.70;;;;;;;;;;5041966;28;20370;-82
2020/12/20 12:27:40;;;;;;;17.27;15.45;;;;;;;;;;5061808;28;20356;-84
2020/12/20 12:30:06;;;;;;;17.48;15.68;;;;;;;;;;5059316;28;20375;-82
2020/12/20 12:32:32;;;;;;;18.55;16.55;;;;;;;;;;5042611;28;20427;-83
2020/12/20 12:34:58;;;;;;;18.75;16.65;;;;;;;;;;5061098;28;20830;-83
2020/12/20 12:37:25;;;;;;;17.67;15.83;;;;;;;;;;5041574;28;20759;-83
2020/12/20 12:39:51;;;;;;;17.30;15.43;;;;;;;;;;5060811;28;20734;-84
2020/12/20 12:42:17;;;;;;;16.83;14.80;;;;;;;;;;5060536;28;20371;-84
2020/12/20 12:44:43;;;;;;;15.80;14.20;;;;;;;;;;5056272;28;20865;-83
2020/12/20 12:47:13;;;;;;;17.55;15.57;;;;;;;;;;5039968;28;20413;-84
2020/12/20 12:49:39;;;;;;;16.33;14.60;;;;;;;;;;5061659;28;20354;-84
2020/12/20 12:52:06;;;;;;;15.80;14.00;;;;;;;;;;5046620;28;20430;-83
2020/12/20 12:54:32;;;;;;;16.65;14.73;;;;;;;;;;5040339;28;20455;-84
2020/12/20 12:56:58;;;;;;;15.40;13.80;;;;;;;;;;5060561;28;20356;-85
2020/12/20 12:59:24;;;;;;;16.30;14.60;;;;;;;;;;5058532;28;20516;-84
2020/12/20 13:01:51;;;;;;;16.83;15.02;;;;;;;;;;5061757;28;20359;-84
2020/12/20 13:04:17;;;;;;;16.57;14.87;;;;;;;;;;5061197;28;20467;-84
2020/12/20 13:06:43;;;;;;;15.68;14.07;;;;;;;;;;5038380;28;20420;-86
2020/12/20 13:09:10;;;;;;;16.00;14.02;;;;;;;;;;5042363;28;21025;-85
2020/12/20 13:11:36;;;;;;;16.02;13.98;;;;;;;;;;5044095;28;20779;-83
2020/12/20 13:14:03;;;;;;;16.17;13.73;;;;;;;;;;5059852;28;20373;-83
2020/12/20 13:16:29;;;;;;;15.30;13.73;;;;;;;;;;5056377;28;20376;-82
2020/12/20 13:18:55;;;;;;;14.00;12.57;;;;;;;;;;5037990;28;20959;-83
2020/12/20 13:21:22;;;;;;;14.23;12.73;;;;;;;;;;5041539;28;20385;-81
2020/12/20 13:23:52;;;;;;;14.25;12.82;;;;;;;;;;5042287;28;20768;-88
2020/12/20 13:26:21;;;;;;;14.93;12.88;;;;;;;;;;5020041;28;20449;-84
2020/12/20 13:28:48;;;;;;;14.15;12.70;;;;;;;;;;5062215;28;20378;-84
2020/12/20 13:31:20;;;;;;;14.57;13.00;;;;;;;;;;5040655;28;20880;-83
2020/12/20 13:33:47;;;;;;;14.10;12.60;;;;;;;;;;5042785;28;20489;-82
2020/12/20 13:36:14;;;;;;;14.52;12.82;;;;;;;;;;5036301;28;20405;-82
2020/12/20 13:38:40;;;;;;;14.80;13.20;;;;;;;;;;5060983;28;20399;-84
2020/12/20 13:41:07;;;;;;;16.50;14.65;;;;;;;;;;5040320;28;20368;-83
2020/12/20 13:43:35;;;;;;;15.45;13.80;;;;;;;;;;5035800;28;20394;-83
2020/12/20 13:46:01;;;;;;;15.85;14.20;;;;;;;;;;5039121;28;20418;-83
2020/12/20 13:48:27;;;;;;;16.43;14.50;;;;;;;;;;5036730;28;20433;-84
2020/12/20 13:50:54;;;;;;;16.08;13.73;;;;;;;;;;5054194;28;20381;-84
2020/12/20 13:53:21;;;;;;;15.00;13.50;;;;;;;;;;5041078;28;20901;-83
2020/12/20 13:55:51;;;;;;;15.73;14.10;;;;;;;;;;5043011;28;20391;-84
2020/12/20 13:58:17;;;;;;;16.63;14.85;;;;;;;;;;5041610;28;20825;-83
2020/12/20 14:00:44;;;;;;;15.88;14.25;;;;;;;;;;5055362;28;20461;-83
2020/12/20 14:03:10;;;;;;;16.13;14.43;;;;;;;;;;5042447;28;20393;-82
2020/12/20 14:05:37;;;;;;;17.02;15.23;;;;;;;;;;5043478;28;20389;-83
2020/12/20 14:08:06;;;;;;;15.27;13.70;;;;;;;;;;5059119;28;20900;-83
2020/12/20 14:10:32;;;;;;;15.93;14.30;;;;;;;;;;5043940;28;20387;-84
2020/12/20 14:12:58;;;;;;;16.33;14.63;;;;;;;;;;5046815;28;20423;-82
2020/12/20 14:15:25;;;;;;;15.10;13.52;;;;;;;;;;5042351;28;20459;-82
2020/12/20 14:17:51;;;;;;;15.20;13.60;;;;;;;;;;5038433;28;20368;-81
2020/12/20 14:20:18;;;;;;;14.77;13.27;;;;;;;;;;5053608;28;20379;-82